sensor_id;sensor_type;location;lat;lon;timestamp;P1;durP1;ratioP1;P2;durP2;ratioP2
2934;SDS011;2462;51.456;7.248;2023-02-12T00:01:39;25.23;;;19.10;;
2934;SDS011;2462;51.456;7.248;2023-02-12T00:04:05;26.10;;;18.87;;
2934;SDS011;2462;51.456;7.248;2023-02-12T00:06:31;27.10;;;19.20;;
2934;SDS011;2462;51.456;7.248;2023-02-12T00:08:57;27.80;;;19.37;;
2934;SDS011;2462;51.456;7.248;2023-02-12T00:11:25;31.00;;;20.50;;
2934;SDS011;2462;51.456;7.248;2023-02-12T00:13:51;26.23;;;18.57;;
2934;SDS011;2462;51.456;7.248;2023-02-12T00:16:19;25.87;;;19.13;;
2934;SDS011;2462;51.456;7.248;2023-02-12T00:18:45;28.23;;;20.13;;
2934;SDS011;2462;51.456;7.248;2023-02-12T00:21:11;27.40;;;19.40;;
2934;SDS011;2462;51.456;7.248;2023-02-12T00:23:38;26.63;;;19.23;;
2934;SDS011;2462;51.456;7.248;2023-02-12T00:26:15;26.70;;;18.50;;
2934;SDS011;2462;51.456;7.248;2023-02-12T00:28:42;25.73;;;18.73;;
2934;SDS011;2462;51.456;7.248;2023-02-12T00:31:09;25.97;;;18.43;;
2934;SDS011;2462;51.456;7.248;2023-02-12T00:33:35;26.40;;;18.57;;
2934;SDS011;2462;51.456;7.248;2023-02-12T00:36:02;24.40;;;16.93;;
2934;SDS011;2462;51.456;7.248;2023-02-12T00:38:28;28.50;;;20.13;;
2934;SDS011;2462;51.456;7.248;2023-02-12T00:40:54;28.10;;;19.03;;
2934;SDS011;2462;51.456;7.248;2023-02-12T00:43:20;23.87;;;18.23;;
2934;SDS011;2462;51.456;7.248;2023-02-12T00:45:47;28.30;;;19.23;;
2934;SDS011;2462;51.456;7.248;2023-02-12T00:48:13;24.20;;;17.97;;
2934;SDS011;2462;51.456;7.248;2023-02-12T00:50:39;30.30;;;19.30;;
2934;SDS011;2462;51.456;7.248;2023-02-12T00:53:06;27.37;;;18.73;;
2934;SDS011;2462;51.456;7.248;2023-02-12T00:55:32;29.47;;;18.33;;
2934;SDS011;2462;51.456;7.248;2023-02-12T00:57:59;28.70;;;19.27;;
2934;SDS011;2462;51.456;7.248;2023-02-12T01:00:25;27.20;;;18.97;;
2934;SDS011;2462;51.456;7.248;2023-02-12T01:02:51;26.10;;;18.60;;
2934;SDS011;2462;51.456;7.248;2023-02-12T01:05:17;25.17;;;18.27;;
2934;SDS011;2462;51.456;7.248;2023-02-12T01:07:47;25.90;;;17.83;;
2934;SDS011;2462;51.456;7.248;2023-02-12T01:10:14;28.00;;;19.30;;
2934;SDS011;2462;51.456;7.248;2023-02-12T01:12:40;23.40;;;18.27;;
2934;SDS011;2462;51.456;7.248;2023-02-12T01:15:06;27.13;;;18.33;;
2934;SDS011;2462;51.456;7.248;2023-02-12T01:17:34;27.43;;;18.77;;
2934;SDS011;2462;51.456;7.248;2023-02-12T01:20:00;26.50;;;18.70;;
2934;SDS011;2462;51.456;7.248;2023-02-12T01:22:27;29.10;;;19.60;;
2934;SDS011;2462;51.456;7.248;2023-02-12T01:24:53;26.60;;;19.20;;
2934;SDS011;2462;51.456;7.248;2023-02-12T01:27:19;25.57;;;18.60;;
2934;SDS011;2462;51.456;7.248;2023-02-12T01:29:45;27.23;;;18.83;;
2934;SDS011;2462;51.456;7.248;2023-02-12T01:32:11;23.77;;;17.47;;
2934;SDS011;2462;51.456;7.248;2023-02-12T01:34:37;27.73;;;19.33;;
2934;SDS011;2462;51.456;7.248;2023-02-12T01:37:03;26.90;;;19.07;;
2934;SDS011;2462;51.456;7.248;2023-02-12T01:39:29;26.53;;;19.17;;
2934;SDS011;2462;51.456;7.248;2023-02-12T01:41:55;26.87;;;18.80;;
2934;SDS011;2462;51.456;7.248;2023-02-12T01:44:22;27.33;;;19.00;;
2934;SDS011;2462;51.456;7.248;2023-02-12T01:46:59;25.90;;;18.57;;
2934;SDS011;2462;51.456;7.248;2023-02-12T01:49:25;24.93;;;17.80;;
2934;SDS011;2462;51.456;7.248;2023-02-12T01:51:56;27.50;;;19.43;;
2934;SDS011;2462;51.456;7.248;2023-02-12T01:54:23;28.27;;;19.67;;
2934;SDS011;2462;51.456;7.248;2023-02-12T01:56:51;28.93;;;19.87;;
2934;SDS011;2462;51.456;7.248;2023-02-12T01:59:17;28.40;;;18.40;;
2934;SDS011;2462;51.456;7.248;2023-02-12T02:01:44;28.53;;;18.53;;
2934;SDS011;2462;51.456;7.248;2023-02-12T02:04:11;24.10;;;17.53;;
2934;SDS011;2462;51.456;7.248;2023-02-12T02:06:44;26.20;;;18.40;;
2934;SDS011;2462;51.456;7.248;2023-02-12T02:09:12;28.80;;;18.67;;
2934;SDS011;2462;51.456;7.248;2023-02-12T02:11:38;26.53;;;18.47;;
2934;SDS011;2462;51.456;7.248;2023-02-12T02:14:23;26.67;;;18.90;;
2934;SDS011;2462;51.456;7.248;2023-02-12T02:27:26;23.90;;;18.17;;
2934;SDS011;2462;51.456;7.248;2023-02-12T02:33:14;25.57;;;18.57;;
2934;SDS011;2462;51.456;7.248;2023-02-12T02:35:36;26.73;;;18.67;;
2934;SDS011;2462;51.456;7.248;2023-02-12T02:40:38;23.67;;;18.53;;
2934;SDS011;2462;51.456;7.248;2023-02-12T02:43:06;29.23;;;17.43;;
2934;SDS011;2462;51.456;7.248;2023-02-12T02:45:47;26.30;;;18.47;;
2934;SDS011;2462;51.456;7.248;2023-02-12T02:48:17;26.80;;;18.70;;
2934;SDS011;2462;51.456;7.248;2023-02-12T02:50:46;25.47;;;18.03;;
2934;SDS011;2462;51.456;7.248;2023-02-12T02:53:14;25.03;;;17.27;;
2934;SDS011;2462;51.456;7.248;2023-02-12T02:55:43;24.43;;;18.47;;
2934;SDS011;2462;51.456;7.248;2023-02-12T02:58:12;25.97;;;17.90;;
2934;SDS011;2462;51.456;7.248;2023-02-12T03:00:51;28.43;;;18.80;;
2934;SDS011;2462;51.456;7.248;2023-02-12T03:03:22;29.77;;;18.67;;
2934;SDS011;2462;51.456;7.248;2023-02-12T03:05:51;25.63;;;18.40;;
2934;SDS011;2462;51.456;7.248;2023-02-12T03:08:22;26.50;;;19.30;;
2934;SDS011;2462;51.456;7.248;2023-02-12T03:10:51;28.20;;;18.43;;
2934;SDS011;2462;51.456;7.248;2023-02-12T03:13:20;24.23;;;17.83;;
2934;SDS011;2462;51.456;7.248;2023-02-12T03:15:53;24.93;;;18.33;;
2934;SDS011;2462;51.456;7.248;2023-02-12T03:18:23;23.30;;;17.23;;
2934;SDS011;2462;51.456;7.248;2023-02-12T03:20:52;25.17;;;17.70;;
2934;SDS011;2462;51.456;7.248;2023-02-12T03:23:22;26.33;;;18.50;;
2934;SDS011;2462;51.456;7.248;2023-02-12T03:25:51;25.43;;;17.33;;
2934;SDS011;2462;51.456;7.248;2023-02-12T03:28:19;24.70;;;17.70;;
2934;SDS011;2462;51.456;7.248;2023-02-12T03:30:57;23.83;;;17.47;;
2934;SDS011;2462;51.456;7.248;2023-02-12T03:33:28;26.97;;;17.60;;
2934;SDS011;2462;51.456;7.248;2023-02-12T03:36:00;25.37;;;18.10;;
2934;SDS011;2462;51.456;7.248;2023-02-12T03:41:02;27.53;;;19.20;;
2934;SDS011;2462;51.456;7.248;2023-02-12T03:44:17;26.17;;;18.43;;
2934;SDS011;2462;51.456;7.248;2023-02-12T03:46:18;24.73;;;17.30;;
2934;SDS011;2462;51.456;7.248;2023-02-12T03:49:02;26.13;;;19.47;;
2934;SDS011;2462;51.456;7.248;2023-02-12T03:51:34;24.60;;;17.47;;
2934;SDS011;2462;51.456;7.248;2023-02-12T03:54:00;22.67;;;17.17;;
2934;SDS011;2462;51.456;7.248;2023-02-12T03:56:35;26.13;;;18.40;;
2934;SDS011;2462;51.456;7.248;2023-02-12T03:59:03;25.03;;;17.97;;
2934;SDS011;2462;51.456;7.248;2023-02-12T04:01:30;25.47;;;17.70;;
2934;SDS011;2462;51.456;7.248;2023-02-12T04:03:56;23.27;;;16.30;;
2934;SDS011;2462;51.456;7.248;2023-02-12T04:06:24;23.27;;;16.17;;
2934;SDS011;2462;51.456;7.248;2023-02-12T04:08:51;24.30;;;17.97;;
2934;SDS011;2462;51.456;7.248;2023-02-12T04:11:31;22.43;;;16.67;;
2934;SDS011;2462;51.456;7.248;2023-02-12T04:16:39;23.30;;;16.67;;
2934;SDS011;2462;51.456;7.248;2023-02-12T04:19:06;22.87;;;16.87;;
2934;SDS011;2462;51.456;7.248;2023-02-12T04:26:35;23.80;;;17.60;;
2934;SDS011;2462;51.456;7.248;2023-02-12T04:29:15;25.00;;;17.57;;
2934;SDS011;2462;51.456;7.248;2023-02-12T04:31:49;23.23;;;16.63;;
2934;SDS011;2462;51.456;7.248;2023-02-12T04:34:20;23.10;;;17.50;;
2934;SDS011;2462;51.456;7.248;2023-02-12T04:39:24;25.60;;;17.30;;
2934;SDS011;2462;51.456;7.248;2023-02-12T04:41:52;28.27;;;17.20;;
2934;SDS011;2462;51.456;7.248;2023-02-12T04:44:20;23.97;;;17.37;;
2934;SDS011;2462;51.456;7.248;2023-02-12T04:46:47;25.80;;;17.03;;
2934;SDS011;2462;51.456;7.248;2023-02-12T04:49:14;26.73;;;16.57;;
2934;SDS011;2462;51.456;7.248;2023-02-12T04:51:41;24.20;;;16.20;;
2934;SDS011;2462;51.456;7.248;2023-02-12T04:54:07;26.10;;;17.83;;
2934;SDS011;2462;51.456;7.248;2023-02-12T04:56:33;25.07;;;17.77;;
2934;SDS011;2462;51.456;7.248;2023-02-12T04:58:59;23.63;;;17.13;;
2934;SDS011;2462;51.456;7.248;2023-02-12T05:01:25;26.23;;;17.37;;
2934;SDS011;2462;51.456;7.248;2023-02-12T05:03:51;24.07;;;17.80;;
2934;SDS011;2462;51.456;7.248;2023-02-12T05:06:17;25.00;;;17.50;;
2934;SDS011;2462;51.456;7.248;2023-02-12T05:08:43;28.13;;;17.07;;
2934;SDS011;2462;51.456;7.248;2023-02-12T05:11:10;24.67;;;17.80;;
2934;SDS011;2462;51.456;7.248;2023-02-12T05:13:36;24.57;;;17.97;;
2934;SDS011;2462;51.456;7.248;2023-02-12T05:16:03;23.40;;;17.30;;
2934;SDS011;2462;51.456;7.248;2023-02-12T05:18:29;24.30;;;17.57;;
2934;SDS011;2462;51.456;7.248;2023-02-12T05:20:56;24.00;;;17.93;;
2934;SDS011;2462;51.456;7.248;2023-02-12T05:23:24;25.87;;;18.00;;
2934;SDS011;2462;51.456;7.248;2023-02-12T05:25:51;25.57;;;19.27;;
2934;SDS011;2462;51.456;7.248;2023-02-12T05:28:17;24.13;;;16.47;;
2934;SDS011;2462;51.456;7.248;2023-02-12T05:30:43;22.93;;;16.53;;
2934;SDS011;2462;51.456;7.248;2023-02-12T05:33:09;23.93;;;17.57;;
2934;SDS011;2462;51.456;7.248;2023-02-12T05:35:35;26.10;;;18.20;;
2934;SDS011;2462;51.456;7.248;2023-02-12T05:38:01;25.53;;;17.63;;
2934;SDS011;2462;51.456;7.248;2023-02-12T05:40:27;27.40;;;18.10;;
2934;SDS011;2462;51.456;7.248;2023-02-12T05:42:53;24.03;;;17.50;;
2934;SDS011;2462;51.456;7.248;2023-02-12T05:45:19;25.90;;;17.80;;
2934;SDS011;2462;51.456;7.248;2023-02-12T05:47:45;23.30;;;17.50;;
2934;SDS011;2462;51.456;7.248;2023-02-12T05:50:11;27.30;;;19.23;;
2934;SDS011;2462;51.456;7.248;2023-02-12T05:52:37;24.67;;;17.63;;
2934;SDS011;2462;51.456;7.248;2023-02-12T05:55:03;28.57;;;18.37;;
2934;SDS011;2462;51.456;7.248;2023-02-12T05:57:29;26.90;;;17.50;;
2934;SDS011;2462;51.456;7.248;2023-02-12T05:59:55;22.17;;;16.43;;
2934;SDS011;2462;51.456;7.248;2023-02-12T06:02:21;25.97;;;17.47;;
2934;SDS011;2462;51.456;7.248;2023-02-12T06:04:47;23.87;;;17.03;;
2934;SDS011;2462;51.456;7.248;2023-02-12T06:07:13;24.90;;;18.33;;
2934;SDS011;2462;51.456;7.248;2023-02-12T06:09:39;25.13;;;17.80;;
2934;SDS011;2462;51.456;7.248;2023-02-12T06:12:05;27.10;;;18.83;;
2934;SDS011;2462;51.456;7.248;2023-02-12T06:14:31;22.80;;;16.90;;
2934;SDS011;2462;51.456;7.248;2023-02-12T06:16:57;26.90;;;18.43;;
2934;SDS011;2462;51.456;7.248;2023-02-12T06:19:23;26.20;;;17.50;;
2934;SDS011;2462;51.456;7.248;2023-02-12T06:21:49;24.80;;;17.10;;
2934;SDS011;2462;51.456;7.248;2023-02-12T06:24:16;25.30;;;18.37;;
2934;SDS011;2462;51.456;7.248;2023-02-12T06:26:42;27.73;;;18.73;;
2934;SDS011;2462;51.456;7.248;2023-02-12T06:29:08;27.20;;;18.80;;
2934;SDS011;2462;51.456;7.248;2023-02-12T06:31:35;25.63;;;15.73;;
2934;SDS011;2462;51.456;7.248;2023-02-12T06:34:02;25.30;;;16.87;;
2934;SDS011;2462;51.456;7.248;2023-02-12T06:36:29;27.03;;;17.40;;
2934;SDS011;2462;51.456;7.248;2023-02-12T06:38:55;24.23;;;16.90;;
2934;SDS011;2462;51.456;7.248;2023-02-12T06:41:21;24.93;;;17.63;;
2934;SDS011;2462;51.456;7.248;2023-02-12T06:43:48;27.57;;;17.97;;
2934;SDS011;2462;51.456;7.248;2023-02-12T06:46:14;26.00;;;17.40;;
2934;SDS011;2462;51.456;7.248;2023-02-12T06:48:40;23.10;;;18.30;;
2934;SDS011;2462;51.456;7.248;2023-02-12T06:51:07;27.87;;;17.80;;
2934;SDS011;2462;51.456;7.248;2023-02-12T06:53:34;24.67;;;17.20;;
2934;SDS011;2462;51.456;7.248;2023-02-12T06:56:01;25.53;;;17.47;;
2934;SDS011;2462;51.456;7.248;2023-02-12T06:58:27;27.40;;;17.50;;
2934;SDS011;2462;51.456;7.248;2023-02-12T07:00:53;28.87;;;18.83;;
2934;SDS011;2462;51.456;7.248;2023-02-12T07:03:19;28.13;;;19.00;;
2934;SDS011;2462;51.456;7.248;2023-02-12T07:05:46;23.90;;;18.00;;
2934;SDS011;2462;51.456;7.248;2023-02-12T07:08:12;23.83;;;17.00;;
2934;SDS011;2462;51.456;7.248;2023-02-12T07:10:38;25.97;;;18.10;;
2934;SDS011;2462;51.456;7.248;2023-02-12T07:13:04;24.97;;;16.90;;
2934;SDS011;2462;51.456;7.248;2023-02-12T07:15:30;22.37;;;17.27;;
2934;SDS011;2462;51.456;7.248;2023-02-12T07:17:56;24.03;;;17.20;;
2934;SDS011;2462;51.456;7.248;2023-02-12T07:20:22;23.37;;;16.47;;
2934;SDS011;2462;51.456;7.248;2023-02-12T07:22:48;22.33;;;16.77;;
2934;SDS011;2462;51.456;7.248;2023-02-12T07:25:14;28.23;;;18.43;;
2934;SDS011;2462;51.456;7.248;2023-02-12T07:27:40;23.10;;;16.77;;
2934;SDS011;2462;51.456;7.248;2023-02-12T07:30:06;27.67;;;19.00;;
2934;SDS011;2462;51.456;7.248;2023-02-12T07:32:33;25.90;;;16.17;;
2934;SDS011;2462;51.456;7.248;2023-02-12T07:34:59;24.60;;;16.80;;
2934;SDS011;2462;51.456;7.248;2023-02-12T07:37:25;24.23;;;17.07;;
2934;SDS011;2462;51.456;7.248;2023-02-12T07:39:51;23.50;;;16.93;;
2934;SDS011;2462;51.456;7.248;2023-02-12T07:42:17;23.57;;;17.20;;
2934;SDS011;2462;51.456;7.248;2023-02-12T07:44:43;22.30;;;15.70;;
2934;SDS011;2462;51.456;7.248;2023-02-12T07:47:09;28.93;;;17.60;;
2934;SDS011;2462;51.456;7.248;2023-02-12T07:49:35;21.83;;;15.47;;
2934;SDS011;2462;51.456;7.248;2023-02-12T07:52:01;23.10;;;16.17;;
2934;SDS011;2462;51.456;7.248;2023-02-12T07:54:27;24.20;;;16.70;;
2934;SDS011;2462;51.456;7.248;2023-02-12T07:56:53;24.20;;;17.50;;
2934;SDS011;2462;51.456;7.248;2023-02-12T07:59:19;23.10;;;16.33;;
2934;SDS011;2462;51.456;7.248;2023-02-12T08:01:49;24.97;;;16.83;;
2934;SDS011;2462;51.456;7.248;2023-02-12T08:04:16;26.57;;;17.67;;
2934;SDS011;2462;51.456;7.248;2023-02-12T08:06:44;22.53;;;16.53;;
2934;SDS011;2462;51.456;7.248;2023-02-12T08:09:12;26.87;;;18.73;;
2934;SDS011;2462;51.456;7.248;2023-02-12T08:11:39;22.23;;;16.50;;
2934;SDS011;2462;51.456;7.248;2023-02-12T08:14:06;25.20;;;16.20;;
2934;SDS011;2462;51.456;7.248;2023-02-12T08:16:34;25.43;;;17.47;;
2934;SDS011;2462;51.456;7.248;2023-02-12T08:19:01;23.17;;;16.60;;
2934;SDS011;2462;51.456;7.248;2023-02-12T08:21:27;25.87;;;17.50;;
2934;SDS011;2462;51.456;7.248;2023-02-12T08:23:53;23.10;;;16.60;;
2934;SDS011;2462;51.456;7.248;2023-02-12T08:26:27;26.03;;;16.47;;
2934;SDS011;2462;51.456;7.248;2023-02-12T08:28:54;25.17;;;16.87;;
2934;SDS011;2462;51.456;7.248;2023-02-12T08:31:22;27.93;;;18.10;;
2934;SDS011;2462;51.456;7.248;2023-02-12T08:33:49;25.10;;;17.30;;
2934;SDS011;2462;51.456;7.248;2023-02-12T08:36:16;21.77;;;16.87;;
2934;SDS011;2462;51.456;7.248;2023-02-12T08:38:43;21.97;;;16.13;;
2934;SDS011;2462;51.456;7.248;2023-02-12T08:41:13;25.07;;;17.07;;
2934;SDS011;2462;51.456;7.248;2023-02-12T08:43:40;25.80;;;17.13;;
2934;SDS011;2462;51.456;7.248;2023-02-12T08:46:14;25.50;;;18.40;;
2934;SDS011;2462;51.456;7.248;2023-02-12T08:48:40;22.13;;;16.13;;
2934;SDS011;2462;51.456;7.248;2023-02-12T08:51:12;22.63;;;15.77;;
2934;SDS011;2462;51.456;7.248;2023-02-12T08:53:39;23.77;;;16.80;;
2934;SDS011;2462;51.456;7.248;2023-02-12T08:56:05;24.00;;;16.50;;
2934;SDS011;2462;51.456;7.248;2023-02-12T08:58:32;23.50;;;16.50;;
2934;SDS011;2462;51.456;7.248;2023-02-12T09:00:58;23.73;;;18.13;;
2934;SDS011;2462;51.456;7.248;2023-02-12T09:03:24;26.13;;;17.30;;
2934;SDS011;2462;51.456;7.248;2023-02-12T09:05:50;25.97;;;16.03;;
2934;SDS011;2462;51.456;7.248;2023-02-12T09:08:16;24.37;;;18.07;;
2934;SDS011;2462;51.456;7.248;2023-02-12T09:10:43;25.03;;;16.10;;
2934;SDS011;2462;51.456;7.248;2023-02-12T09:13:10;26.07;;;17.10;;
2934;SDS011;2462;51.456;7.248;2023-02-12T09:15:41;20.50;;;15.17;;
2934;SDS011;2462;51.456;7.248;2023-02-12T09:18:07;21.10;;;16.10;;
2934;SDS011;2462;51.456;7.248;2023-02-12T09:20:34;23.90;;;16.43;;
2934;SDS011;2462;51.456;7.248;2023-02-12T09:23:01;22.73;;;16.33;;
2934;SDS011;2462;51.456;7.248;2023-02-12T09:25:27;25.60;;;16.40;;
2934;SDS011;2462;51.456;7.248;2023-02-12T09:27:54;23.40;;;16.40;;
2934;SDS011;2462;51.456;7.248;2023-02-12T09:30:20;21.10;;;16.47;;
2934;SDS011;2462;51.456;7.248;2023-02-12T09:32:46;19.67;;;14.47;;
2934;SDS011;2462;51.456;7.248;2023-02-12T09:35:12;23.93;;;16.27;;
2934;SDS011;2462;51.456;7.248;2023-02-12T09:37:38;23.63;;;16.60;;
2934;SDS011;2462;51.456;7.248;2023-02-12T09:40:05;21.30;;;14.70;;
2934;SDS011;2462;51.456;7.248;2023-02-12T09:42:36;24.00;;;17.43;;
2934;SDS011;2462;51.456;7.248;2023-02-12T09:45:17;25.03;;;16.60;;
2934;SDS011;2462;51.456;7.248;2023-02-12T09:47:47;20.63;;;15.00;;
2934;SDS011;2462;51.456;7.248;2023-02-12T09:53:01;24.13;;;17.07;;
2934;SDS011;2462;51.456;7.248;2023-02-12T09:55:31;25.67;;;17.53;;
2934;SDS011;2462;51.456;7.248;2023-02-12T09:58:00;22.73;;;16.07;;
2934;SDS011;2462;51.456;7.248;2023-02-12T10:00:27;21.13;;;16.00;;
2934;SDS011;2462;51.456;7.248;2023-02-12T10:02:55;21.53;;;16.00;;
2934;SDS011;2462;51.456;7.248;2023-02-12T10:05:24;22.83;;;16.93;;
2934;SDS011;2462;51.456;7.248;2023-02-12T10:15:33;23.73;;;16.87;;
2934;SDS011;2462;51.456;7.248;2023-02-12T10:18:10;27.20;;;19.13;;
2934;SDS011;2462;51.456;7.248;2023-02-12T10:23:35;25.33;;;17.97;;
2934;SDS011;2462;51.456;7.248;2023-02-12T10:26:18;22.60;;;17.60;;
2934;SDS011;2462;51.456;7.248;2023-02-12T10:28:44;23.17;;;17.37;;
2934;SDS011;2462;51.456;7.248;2023-02-12T10:31:12;22.37;;;17.53;;
2934;SDS011;2462;51.456;7.248;2023-02-12T10:33:42;24.50;;;18.70;;
2934;SDS011;2462;51.456;7.248;2023-02-12T10:38:45;24.00;;;17.47;;
2934;SDS011;2462;51.456;7.248;2023-02-12T10:41:13;22.93;;;18.00;;
2934;SDS011;2462;51.456;7.248;2023-02-12T10:43:40;22.30;;;15.70;;
2934;SDS011;2462;51.456;7.248;2023-02-12T10:46:11;23.10;;;17.50;;
2934;SDS011;2462;51.456;7.248;2023-02-12T10:48:38;23.27;;;16.80;;
2934;SDS011;2462;51.456;7.248;2023-02-12T10:53:39;24.73;;;17.37;;
2934;SDS011;2462;51.456;7.248;2023-02-12T10:56:11;22.70;;;17.70;;
2934;SDS011;2462;51.456;7.248;2023-02-12T10:58:50;25.13;;;18.60;;
2934;SDS011;2462;51.456;7.248;2023-02-12T11:01:19;23.63;;;17.90;;
2934;SDS011;2462;51.456;7.248;2023-02-12T11:03:46;20.63;;;16.40;;
2934;SDS011;2462;51.456;7.248;2023-02-12T11:06:13;23.17;;;17.73;;
2934;SDS011;2462;51.456;7.248;2023-02-12T11:08:40;22.10;;;16.63;;
2934;SDS011;2462;51.456;7.248;2023-02-12T11:11:07;23.70;;;17.00;;
2934;SDS011;2462;51.456;7.248;2023-02-12T11:13:35;24.63;;;18.40;;
2934;SDS011;2462;51.456;7.248;2023-02-12T11:16:01;23.17;;;17.40;;
2934;SDS011;2462;51.456;7.248;2023-02-12T11:18:28;22.00;;;16.50;;
2934;SDS011;2462;51.456;7.248;2023-02-12T11:21:00;25.63;;;16.83;;
2934;SDS011;2462;51.456;7.248;2023-02-12T11:23:29;25.50;;;18.50;;
2934;SDS011;2462;51.456;7.248;2023-02-12T11:26:00;22.97;;;17.10;;
2934;SDS011;2462;51.456;7.248;2023-02-12T11:28:26;24.17;;;18.50;;
2934;SDS011;2462;51.456;7.248;2023-02-12T11:30:56;25.23;;;19.00;;
2934;SDS011;2462;51.456;7.248;2023-02-12T11:33:24;22.70;;;17.33;;
2934;SDS011;2462;51.456;7.248;2023-02-12T11:35:53;21.77;;;16.33;;
2934;SDS011;2462;51.456;7.248;2023-02-12T11:38:20;23.27;;;17.63;;
2934;SDS011;2462;51.456;7.248;2023-02-12T11:40:47;23.23;;;17.30;;
2934;SDS011;2462;51.456;7.248;2023-02-12T11:43:15;20.00;;;16.07;;
2934;SDS011;2462;51.456;7.248;2023-02-12T11:45:46;23.87;;;17.53;;
2934;SDS011;2462;51.456;7.248;2023-02-12T11:48:18;23.80;;;18.37;;
2934;SDS011;2462;51.456;7.248;2023-02-12T11:50:46;24.30;;;17.77;;
2934;SDS011;2462;51.456;7.248;2023-02-12T11:53:18;21.17;;;16.43;;
2934;SDS011;2462;51.456;7.248;2023-02-12T11:55:52;19.80;;;17.37;;
2934;SDS011;2462;51.456;7.248;2023-02-12T11:58:23;24.27;;;18.83;;
2934;SDS011;2462;51.456;7.248;2023-02-12T12:03:37;21.90;;;16.20;;
2934;SDS011;2462;51.456;7.248;2023-02-12T12:11:46;28.20;;;18.63;;
2934;SDS011;2462;51.456;7.248;2023-02-12T12:16:50;23.33;;;16.67;;
2934;SDS011;2462;51.456;7.248;2023-02-12T12:22:27;22.13;;;16.73;;
2934;SDS011;2462;51.456;7.248;2023-02-12T12:25:07;25.43;;;18.97;;
2934;SDS011;2462;51.456;7.248;2023-02-12T12:27:35;24.40;;;16.33;;
2934;SDS011;2462;51.456;7.248;2023-02-12T12:30:24;23.80;;;17.47;;
2934;SDS011;2462;51.456;7.248;2023-02-12T12:32:53;22.60;;;17.53;;
2934;SDS011;2462;51.456;7.248;2023-02-12T12:35:24;21.47;;;16.03;;
2934;SDS011;2462;51.456;7.248;2023-02-12T12:37:59;20.50;;;16.50;;
2934;SDS011;2462;51.456;7.248;2023-02-12T12:40:46;21.20;;;17.43;;
2934;SDS011;2462;51.456;7.248;2023-02-12T12:45:57;20.97;;;17.03;;
2934;SDS011;2462;51.456;7.248;2023-02-12T12:53:33;23.67;;;18.27;;
2934;SDS011;2462;51.456;7.248;2023-02-12T12:58:51;21.07;;;16.67;;
2934;SDS011;2462;51.456;7.248;2023-02-12T13:06:51;20.93;;;16.47;;
2934;SDS011;2462;51.456;7.248;2023-02-12T13:12:07;25.57;;;18.00;;
2934;SDS011;2462;51.456;7.248;2023-02-12T13:19:55;24.40;;;16.47;;
2934;SDS011;2462;51.456;7.248;2023-02-12T13:22:23;22.40;;;17.10;;
2934;SDS011;2462;51.456;7.248;2023-02-12T13:25:06;24.90;;;17.67;;
2934;SDS011;2462;51.456;7.248;2023-02-12T13:27:39;23.80;;;16.53;;
2934;SDS011;2462;51.456;7.248;2023-02-12T13:35:07;20.80;;;15.93;;
2934;SDS011;2462;51.456;7.248;2023-02-12T13:37:41;21.60;;;16.87;;
2934;SDS011;2462;51.456;7.248;2023-02-12T13:40:16;23.23;;;17.37;;
2934;SDS011;2462;51.456;7.248;2023-02-12T13:42:47;22.20;;;16.67;;
2934;SDS011;2462;51.456;7.248;2023-02-12T13:45:18;26.60;;;19.90;;
2934;SDS011;2462;51.456;7.248;2023-02-12T13:55:25;22.17;;;17.47;;
2934;SDS011;2462;51.456;7.248;2023-02-12T14:03:24;22.30;;;16.67;;
2934;SDS011;2462;51.456;7.248;2023-02-12T14:06:06;20.63;;;16.70;;
2934;SDS011;2462;51.456;7.248;2023-02-12T14:08:37;24.50;;;17.47;;
2934;SDS011;2462;51.456;7.248;2023-02-12T14:11:06;22.90;;;17.07;;
2934;SDS011;2462;51.456;7.248;2023-02-12T14:13:34;24.47;;;17.40;;
2934;SDS011;2462;51.456;7.248;2023-02-12T14:16:34;21.73;;;17.23;;
2934;SDS011;2462;51.456;7.248;2023-02-12T14:21:46;21.10;;;16.37;;
2934;SDS011;2462;51.456;7.248;2023-02-12T14:26:57;20.57;;;16.23;;
2934;SDS011;2462;51.456;7.248;2023-02-12T14:29:23;22.33;;;16.97;;
2934;SDS011;2462;51.456;7.248;2023-02-12T14:31:49;22.60;;;16.60;;
2934;SDS011;2462;51.456;7.248;2023-02-12T14:36:43;22.70;;;17.30;;
2934;SDS011;2462;51.456;7.248;2023-02-12T14:41:51;25.60;;;17.90;;
2934;SDS011;2462;51.456;7.248;2023-02-12T14:47:04;21.67;;;16.13;;
2934;SDS011;2462;51.456;7.248;2023-02-12T14:49:36;25.40;;;18.30;;
2934;SDS011;2462;51.456;7.248;2023-02-12T14:56:55;24.13;;;18.43;;
2934;SDS011;2462;51.456;7.248;2023-02-12T14:59:23;19.50;;;16.00;;
2934;SDS011;2462;51.456;7.248;2023-02-12T15:01:50;26.33;;;17.97;;
2934;SDS011;2462;51.456;7.248;2023-02-12T15:04:27;21.60;;;15.47;;
2934;SDS011;2462;51.456;7.248;2023-02-12T15:09:25;25.70;;;16.80;;
2934;SDS011;2462;51.456;7.248;2023-02-12T15:11:54;25.10;;;16.43;;
2934;SDS011;2462;51.456;7.248;2023-02-12T15:14:27;19.10;;;13.47;;
2934;SDS011;2462;51.456;7.248;2023-02-12T15:17:04;24.40;;;15.23;;
2934;SDS011;2462;51.456;7.248;2023-02-12T15:19:42;25.03;;;16.23;;
2934;SDS011;2462;51.456;7.248;2023-02-12T15:22:22;25.27;;;16.30;;
2934;SDS011;2462;51.456;7.248;2023-02-12T15:24:49;21.50;;;16.33;;
2934;SDS011;2462;51.456;7.248;2023-02-12T15:27:16;22.10;;;15.20;;
2934;SDS011;2462;51.456;7.248;2023-02-12T15:29:43;23.40;;;15.50;;
2934;SDS011;2462;51.456;7.248;2023-02-12T15:34:46;22.53;;;16.50;;
2934;SDS011;2462;51.456;7.248;2023-02-12T15:37:18;23.87;;;18.47;;
2934;SDS011;2462;51.456;7.248;2023-02-12T15:39:46;22.13;;;16.93;;
2934;SDS011;2462;51.456;7.248;2023-02-12T15:42:28;22.03;;;16.10;;
2934;SDS011;2462;51.456;7.248;2023-02-12T15:45:15;21.80;;;16.20;;
2934;SDS011;2462;51.456;7.248;2023-02-12T15:47:42;26.70;;;18.00;;
2934;SDS011;2462;51.456;7.248;2023-02-12T15:50:12;24.33;;;17.30;;
2934;SDS011;2462;51.456;7.248;2023-02-12T15:52:38;20.43;;;16.20;;
2934;SDS011;2462;51.456;7.248;2023-02-12T15:55:05;22.23;;;17.13;;
2934;SDS011;2462;51.456;7.248;2023-02-12T15:57:37;21.73;;;14.80;;
2934;SDS011;2462;51.456;7.248;2023-02-12T16:00:05;21.47;;;15.07;;
2934;SDS011;2462;51.456;7.248;2023-02-12T16:02:32;18.93;;;14.77;;
2934;SDS011;2462;51.456;7.248;2023-02-12T16:04:59;21.43;;;15.90;;
2934;SDS011;2462;51.456;7.248;2023-02-12T16:07:28;18.87;;;15.50;;
2934;SDS011;2462;51.456;7.248;2023-02-12T16:09:55;22.17;;;16.90;;
2934;SDS011;2462;51.456;7.248;2023-02-12T16:12:22;21.80;;;14.53;;
2934;SDS011;2462;51.456;7.248;2023-02-12T16:14:50;18.30;;;12.80;;
2934;SDS011;2462;51.456;7.248;2023-02-12T16:19:54;20.23;;;14.80;;
2934;SDS011;2462;51.456;7.248;2023-02-12T16:22:20;20.07;;;15.10;;
2934;SDS011;2462;51.456;7.248;2023-02-12T16:24:48;20.83;;;14.63;;
2934;SDS011;2462;51.456;7.248;2023-02-12T16:27:22;19.17;;;14.20;;
2934;SDS011;2462;51.456;7.248;2023-02-12T16:29:50;20.83;;;15.23;;
2934;SDS011;2462;51.456;7.248;2023-02-12T16:32:33;17.00;;;12.80;;
2934;SDS011;2462;51.456;7.248;2023-02-12T16:35:05;19.30;;;13.80;;
2934;SDS011;2462;51.456;7.248;2023-02-12T16:42:35;20.17;;;14.20;;
2934;SDS011;2462;51.456;7.248;2023-02-12T16:45:08;21.00;;;15.90;;
2934;SDS011;2462;51.456;7.248;2023-02-12T16:47:48;19.57;;;15.77;;
2934;SDS011;2462;51.456;7.248;2023-02-12T16:50:14;17.80;;;14.63;;
2934;SDS011;2462;51.456;7.248;2023-02-12T16:52:40;19.90;;;14.53;;
2934;SDS011;2462;51.456;7.248;2023-02-12T16:55:11;17.63;;;13.93;;
2934;SDS011;2462;51.456;7.248;2023-02-12T16:57:38;20.93;;;14.20;;
2934;SDS011;2462;51.456;7.248;2023-02-12T17:00:04;19.03;;;15.10;;
2934;SDS011;2462;51.456;7.248;2023-02-12T17:02:32;18.93;;;14.33;;
2934;SDS011;2462;51.456;7.248;2023-02-12T17:05:00;20.70;;;15.17;;
2934;SDS011;2462;51.456;7.248;2023-02-12T17:07:29;17.30;;;14.53;;
2934;SDS011;2462;51.456;7.248;2023-02-12T17:09:55;20.10;;;14.60;;
2934;SDS011;2462;51.456;7.248;2023-02-12T17:12:21;21.40;;;15.33;;